sensor_id;sensor_type;location;lat;lon;timestamp;P1;durP1;ratioP1;P2;durP2;ratioP2
17658;SDS011;8948;51.534;8.262;2022-07-15T00:03:37;5.75;;;1.60;;
17658;SDS011;8948;51.534;8.262;2022-07-15T00:08:38;6.35;;;1.52;;
17658;SDS011;8948;51.534;8.262;2022-07-15T00:13:38;5.95;;;1.70;;
17658;SDS011;8948;51.534;8.262;2022-07-15T00:18:42;5.15;;;1.73;;
17658;SDS011;8948;51.534;8.262;2022-07-15T00:23:43;8.30;;;1.95;;
17658;SDS011;8948;51.534;8.262;2022-07-15T00:28:44;5.80;;;1.70;;
17658;SDS011;8948;51.534;8.262;2022-07-15T00:33:44;5.22;;;1.80;;
17658;SDS011;8948;51.534;8.262;2022-07-15T00:38:45;7.03;;;1.45;;
17658;SDS011;8948;51.534;8.262;2022-07-15T00:43:45;7.03;;;1.90;;
17658;SDS011;8948;51.534;8.262;2022-07-15T00:48:46;5.00;;;1.60;;
17658;SDS011;8948;51.534;8.262;2022-07-15T00:53:47;11.43;;;2.20;;
17658;SDS011;8948;51.534;8.262;2022-07-15T00:58:48;9.55;;;2.30;;
17658;SDS011;8948;51.534;8.262;2022-07-15T01:03:51;8.88;;;1.92;;
17658;SDS011;8948;51.534;8.262;2022-07-15T01:08:53;10.00;;;1.92;;
17658;SDS011;8948;51.534;8.262;2022-07-15T01:13:54;8.00;;;2.20;;
17658;SDS011;8948;51.534;8.262;2022-07-15T01:18:55;6.07;;;1.67;;
17658;SDS011;8948;51.534;8.262;2022-07-15T01:23:55;6.65;;;2.10;;
17658;SDS011;8948;51.534;8.262;2022-07-15T01:28:56;8.10;;;2.13;;
17658;SDS011;8948;51.534;8.262;2022-07-15T01:33:57;8.15;;;2.10;;
17658;SDS011;8948;51.534;8.262;2022-07-15T01:38:57;10.35;;;2.25;;
17658;SDS011;8948;51.534;8.262;2022-07-15T01:43:58;11.43;;;2.60;;
17658;SDS011;8948;51.534;8.262;2022-07-15T01:48:59;10.27;;;2.53;;
17658;SDS011;8948;51.534;8.262;2022-07-15T01:54:18;7.82;;;2.40;;
17658;SDS011;8948;51.534;8.262;2022-07-15T01:59:19;10.55;;;2.10;;
17658;SDS011;8948;51.534;8.262;2022-07-15T02:04:22;10.02;;;2.38;;
17658;SDS011;8948;51.534;8.262;2022-07-15T02:09:23;9.50;;;2.28;;
17658;SDS011;8948;51.534;8.262;2022-07-15T02:14:24;7.93;;;2.17;;
17658;SDS011;8948;51.534;8.262;2022-07-15T02:19:25;10.52;;;2.38;;
17658;SDS011;8948;51.534;8.262;2022-07-15T02:24:25;18.35;;;2.88;;
17658;SDS011;8948;51.534;8.262;2022-07-15T02:29:26;8.55;;;2.38;;
17658;SDS011;8948;51.534;8.262;2022-07-15T02:34:27;10.25;;;2.78;;
17658;SDS011;8948;51.534;8.262;2022-07-15T02:39:27;9.13;;;2.58;;
17658;SDS011;8948;51.534;8.262;2022-07-15T02:44:28;17.08;;;3.20;;
17658;SDS011;8948;51.534;8.262;2022-07-15T02:49:29;12.52;;;2.63;;
17658;SDS011;8948;51.534;8.262;2022-07-15T02:54:30;12.65;;;3.20;;
17658;SDS011;8948;51.534;8.262;2022-07-15T02:59:30;9.77;;;2.40;;
17658;SDS011;8948;51.534;8.262;2022-07-15T03:04:31;11.25;;;2.75;;
17658;SDS011;8948;51.534;8.262;2022-07-15T03:09:31;11.52;;;2.95;;
17658;SDS011;8948;51.534;8.262;2022-07-15T03:14:32;8.23;;;2.70;;
17658;SDS011;8948;51.534;8.262;2022-07-15T03:19:32;5.70;;;2.33;;
17658;SDS011;8948;51.534;8.262;2022-07-15T03:24:33;12.18;;;3.15;;
17658;SDS011;8948;51.534;8.262;2022-07-15T03:29:34;8.27;;;2.60;;
17658;SDS011;8948;51.534;8.262;2022-07-15T03:34:35;8.68;;;2.40;;
17658;SDS011;8948;51.534;8.262;2022-07-15T03:39:36;10.63;;;2.55;;
17658;SDS011;8948;51.534;8.262;2022-07-15T03:44:38;8.90;;;2.75;;
17658;SDS011;8948;51.534;8.262;2022-07-15T03:49:38;10.50;;;2.30;;
17658;SDS011;8948;51.534;8.262;2022-07-15T03:54:39;13.55;;;3.17;;
17658;SDS011;8948;51.534;8.262;2022-07-15T03:59:40;12.88;;;3.08;;
17658;SDS011;8948;51.534;8.262;2022-07-15T04:04:41;10.55;;;2.72;;
17658;SDS011;8948;51.534;8.262;2022-07-15T04:09:41;10.80;;;3.10;;
17658;SDS011;8948;51.534;8.262;2022-07-15T04:14:42;10.32;;;3.05;;
17658;SDS011;8948;51.534;8.262;2022-07-15T04:19:42;10.10;;;3.10;;
17658;SDS011;8948;51.534;8.262;2022-07-15T04:24:43;11.05;;;2.95;;
17658;SDS011;8948;51.534;8.262;2022-07-15T04:29:44;13.60;;;3.08;;
17658;SDS011;8948;51.534;8.262;2022-07-15T04:34:44;8.35;;;3.30;;
17658;SDS011;8948;51.534;8.262;2022-07-15T04:39:45;14.63;;;3.35;;
17658;SDS011;8948;51.534;8.262;2022-07-15T04:44:45;10.30;;;3.05;;
17658;SDS011;8948;51.534;8.262;2022-07-15T04:49:47;14.82;;;2.92;;
17658;SDS011;8948;51.534;8.262;2022-07-15T04:55:06;9.48;;;2.90;;
17658;SDS011;8948;51.534;8.262;2022-07-15T05:00:07;9.10;;;3.15;;
17658;SDS011;8948;51.534;8.262;2022-07-15T05:05:08;11.85;;;3.72;;
17658;SDS011;8948;51.534;8.262;2022-07-15T05:10:09;15.93;;;3.53;;
17658;SDS011;8948;51.534;8.262;2022-07-15T05:15:11;12.95;;;3.92;;
17658;SDS011;8948;51.534;8.262;2022-07-15T05:20:11;11.20;;;3.25;;
17658;SDS011;8948;51.534;8.262;2022-07-15T05:25:12;14.20;;;3.35;;
17658;SDS011;8948;51.534;8.262;2022-07-15T05:30:13;15.77;;;3.65;;
17658;SDS011;8948;51.534;8.262;2022-07-15T05:35:15;13.63;;;2.92;;
17658;SDS011;8948;51.534;8.262;2022-07-15T05:40:16;13.60;;;3.35;;
17658;SDS011;8948;51.534;8.262;2022-07-15T05:45:16;9.27;;;3.65;;
17658;SDS011;8948;51.534;8.262;2022-07-15T05:50:17;15.38;;;3.50;;
17658;SDS011;8948;51.534;8.262;2022-07-15T05:55:18;9.82;;;3.35;;
17658;SDS011;8948;51.534;8.262;2022-07-15T06:00:18;16.30;;;3.63;;
17658;SDS011;8948;51.534;8.262;2022-07-15T06:05:19;15.82;;;2.83;;
17658;SDS011;8948;51.534;8.262;2022-07-15T06:10:20;10.38;;;2.45;;
17658;SDS011;8948;51.534;8.262;2022-07-15T06:15:21;9.35;;;3.65;;
17658;SDS011;8948;51.534;8.262;2022-07-15T06:20:22;11.45;;;2.97;;
17658;SDS011;8948;51.534;8.262;2022-07-15T06:25:23;22.25;;;3.92;;
17658;SDS011;8948;51.534;8.262;2022-07-15T06:30:24;13.75;;;3.67;;
17658;SDS011;8948;51.534;8.262;2022-07-15T06:35:24;9.55;;;1.98;;
17658;SDS011;8948;51.534;8.262;2022-07-15T06:40:25;10.63;;;2.20;;
17658;SDS011;8948;51.534;8.262;2022-07-15T06:45:25;9.43;;;2.40;;
17658;SDS011;8948;51.534;8.262;2022-07-15T06:50:26;12.88;;;2.85;;
17658;SDS011;8948;51.534;8.262;2022-07-15T06:55:27;5.80;;;2.10;;
17658;SDS011;8948;51.534;8.262;2022-07-15T07:00:27;11.15;;;2.15;;
17658;SDS011;8948;51.534;8.262;2022-07-15T07:05:28;6.28;;;2.00;;
17658;SDS011;8948;51.534;8.262;2022-07-15T07:10:29;11.15;;;1.50;;
17658;SDS011;8948;51.534;8.262;2022-07-15T07:15:31;10.05;;;2.05;;
17658;SDS011;8948;51.534;8.262;2022-07-15T07:20:31;13.13;;;2.08;;
17658;SDS011;8948;51.534;8.262;2022-07-15T07:25:32;9.45;;;2.03;;
17658;SDS011;8948;51.534;8.262;2022-07-15T07:30:33;14.05;;;2.85;;
17658;SDS011;8948;51.534;8.262;2022-07-15T07:35:34;13.60;;;2.40;;
17658;SDS011;8948;51.534;8.262;2022-07-15T07:40:34;11.80;;;2.03;;
17658;SDS011;8948;51.534;8.262;2022-07-15T07:45:35;9.60;;;1.98;;
17658;SDS011;8948;51.534;8.262;2022-07-15T07:50:35;13.05;;;2.65;;
17658;SDS011;8948;51.534;8.262;2022-07-15T07:55:36;7.75;;;2.22;;
17658;SDS011;8948;51.534;8.262;2022-07-15T08:00:38;9.63;;;2.35;;
17658;SDS011;8948;51.534;8.262;2022-07-15T08:05:39;9.90;;;2.40;;
17658;SDS011;8948;51.534;8.262;2022-07-15T08:10:40;15.02;;;2.50;;
17658;SDS011;8948;51.534;8.262;2022-07-15T08:15:42;12.85;;;2.58;;
17658;SDS011;8948;51.534;8.262;2022-07-15T08:20:43;12.15;;;2.55;;
17658;SDS011;8948;51.534;8.262;2022-07-15T08:25:44;13.10;;;2.58;;
17658;SDS011;8948;51.534;8.262;2022-07-15T08:30:45;15.20;;;2.47;;
17658;SDS011;8948;51.534;8.262;2022-07-15T08:35:46;13.07;;;2.33;;
17658;SDS011;8948;51.534;8.262;2022-07-15T08:40:47;13.70;;;2.00;;
17658;SDS011;8948;51.534;8.262;2022-07-15T08:45:49;13.07;;;2.60;;
17658;SDS011;8948;51.534;8.262;2022-07-15T08:50:49;7.10;;;1.60;;
17658;SDS011;8948;51.534;8.262;2022-07-15T08:55:50;13.38;;;2.30;;
17658;SDS011;8948;51.534;8.262;2022-07-15T09:00:51;19.15;;;2.50;;
17658;SDS011;8948;51.534;8.262;2022-07-15T09:05:52;9.90;;;2.42;;
17658;SDS011;8948;51.534;8.262;2022-07-15T09:10:53;12.85;;;2.40;;
17658;SDS011;8948;51.534;8.262;2022-07-15T09:16:03;10.52;;;2.25;;
17658;SDS011;8948;51.534;8.262;2022-07-15T09:21:17;14.25;;;2.38;;
17658;SDS011;8948;51.534;8.262;2022-07-15T09:26:27;7.82;;;1.67;;
17658;SDS011;8948;51.534;8.262;2022-07-15T09:31:37;11.02;;;1.98;;
17658;SDS011;8948;51.534;8.262;2022-07-15T09:36:56;16.60;;;2.72;;
17658;SDS011;8948;51.534;8.262;2022-07-15T09:42:06;10.02;;;2.08;;
17658;SDS011;8948;51.534;8.262;2022-07-15T09:47:09;9.40;;;2.10;;
17658;SDS011;8948;51.534;8.262;2022-07-15T09:52:18;8.13;;;2.00;;
17658;SDS011;8948;51.534;8.262;2022-07-15T09:57:19;4.47;;;1.30;;
17658;SDS011;8948;51.534;8.262;2022-07-15T10:02:20;12.00;;;2.75;;
17658;SDS011;8948;51.534;8.262;2022-07-15T10:07:22;11.20;;;1.95;;
17658;SDS011;8948;51.534;8.262;2022-07-15T10:12:25;14.73;;;2.22;;
17658;SDS011;8948;51.534;8.262;2022-07-15T10:28:13;11.02;;;1.90;;
17658;SDS011;8948;51.534;8.262;2022-07-15T10:33:20;11.45;;;2.08;;
17658;SDS011;8948;51.534;8.262;2022-07-15T10:48:39;6.72;;;1.60;;
17658;SDS011;8948;51.534;8.262;2022-07-15T10:53:45;10.18;;;1.77;;
17658;SDS011;8948;51.534;8.262;2022-07-15T11:14:53;6.40;;;1.80;;
17658;SDS011;8948;51.534;8.262;2022-07-15T11:19:59;10.77;;;1.85;;
17658;SDS011;8948;51.534;8.262;2022-07-15T11:25:03;5.07;;;1.58;;
17658;SDS011;8948;51.534;8.262;2022-07-15T11:30:05;7.13;;;1.60;;
17658;SDS011;8948;51.534;8.262;2022-07-15T11:35:07;8.00;;;1.60;;
17658;SDS011;8948;51.534;8.262;2022-07-15T11:40:15;8.90;;;1.98;;
17658;SDS011;8948;51.534;8.262;2022-07-15T11:45:36;6.50;;;1.45;;
17658;SDS011;8948;51.534;8.262;2022-07-15T11:50:47;6.03;;;1.73;;
17658;SDS011;8948;51.534;8.262;2022-07-15T12:00:50;9.15;;;1.30;;
17658;SDS011;8948;51.534;8.262;2022-07-15T12:06:04;6.63;;;1.88;;
17658;SDS011;8948;51.534;8.262;2022-07-15T12:11:17;5.32;;;1.70;;
17658;SDS011;8948;51.534;8.262;2022-07-15T12:17:02;6.45;;;1.55;;
17658;SDS011;8948;51.534;8.262;2022-07-15T12:21:45;8.25;;;1.63;;
17658;SDS011;8948;51.534;8.262;2022-07-15T12:31:57;6.50;;;1.40;;
17658;SDS011;8948;51.534;8.262;2022-07-15T12:37:00;6.70;;;1.40;;
17658;SDS011;8948;51.534;8.262;2022-07-15T12:42:02;6.78;;;1.45;;
17658;SDS011;8948;51.534;8.262;2022-07-15T12:47:04;9.35;;;1.98;;
17658;SDS011;8948;51.534;8.262;2022-07-15T12:57:34;3.65;;;1.40;;
17658;SDS011;8948;51.534;8.262;2022-07-15T13:02:58;8.63;;;1.85;;
17658;SDS011;8948;51.534;8.262;2022-07-15T13:08:02;8.48;;;2.05;;
17658;SDS011;8948;51.534;8.262;2022-07-15T13:13:04;7.70;;;1.58;;
17658;SDS011;8948;51.534;8.262;2022-07-15T13:18:05;10.85;;;1.77;;
17658;SDS011;8948;51.534;8.262;2022-07-15T13:23:06;5.65;;;1.30;;
17658;SDS011;8948;51.534;8.262;2022-07-15T13:28:07;5.93;;;1.40;;
17658;SDS011;8948;51.534;8.262;2022-07-15T13:33:09;11.15;;;1.50;;
17658;SDS011;8948;51.534;8.262;2022-07-15T13:38:11;8.35;;;1.90;;
17658;SDS011;8948;51.534;8.262;2022-07-15T13:43:12;7.38;;;1.75;;
17658;SDS011;8948;51.534;8.262;2022-07-15T13:48:13;8.43;;;1.45;;
17658;SDS011;8948;51.534;8.262;2022-07-15T13:53:14;6.78;;;1.23;;
17658;SDS011;8948;51.534;8.262;2022-07-15T13:58:14;6.20;;;1.48;;
17658;SDS011;8948;51.534;8.262;2022-07-15T14:03:15;5.20;;;1.50;;
17658;SDS011;8948;51.534;8.262;2022-07-15T14:08:16;4.57;;;1.10;;
17658;SDS011;8948;51.534;8.262;2022-07-15T14:13:16;2.60;;;1.00;;
17658;SDS011;8948;51.534;8.262;2022-07-15T14:18:17;4.00;;;1.13;;
17658;SDS011;8948;51.534;8.262;2022-07-15T14:23:17;5.28;;;0.95;;
17658;SDS011;8948;51.534;8.262;2022-07-15T14:28:18;4.88;;;1.10;;
17658;SDS011;8948;51.534;8.262;2022-07-15T14:33:18;2.78;;;0.95;;
17658;SDS011;8948;51.534;8.262;2022-07-15T14:38:19;3.78;;;1.38;;
17658;SDS011;8948;51.534;8.262;2022-07-15T14:43:20;6.25;;;0.98;;
17658;SDS011;8948;51.534;8.262;2022-07-15T14:48:20;4.18;;;1.05;;
17658;SDS011;8948;51.534;8.262;2022-07-15T14:53:21;3.90;;;1.00;;
17658;SDS011;8948;51.534;8.262;2022-07-15T14:58:22;4.25;;;0.90;;
17658;SDS011;8948;51.534;8.262;2022-07-15T15:03:22;4.97;;;1.20;;
17658;SDS011;8948;51.534;8.262;2022-07-15T15:08:24;1.98;;;0.70;;
17658;SDS011;8948;51.534;8.262;2022-07-15T15:13:25;4.43;;;1.15;;
17658;SDS011;8948;51.534;8.262;2022-07-15T15:18:25;3.75;;;0.80;;
17658;SDS011;8948;51.534;8.262;2022-07-15T15:23:26;5.30;;;0.80;;
17658;SDS011;8948;51.534;8.262;2022-07-15T15:28:27;3.25;;;0.65;;
17658;SDS011;8948;51.534;8.262;2022-07-15T15:33:28;2.10;;;0.80;;
17658;SDS011;8948;51.534;8.262;2022-07-15T15:38:28;4.68;;;0.80;;
17658;SDS011;8948;51.534;8.262;2022-07-15T15:43:29;2.47;;;0.80;;
17658;SDS011;8948;51.534;8.262;2022-07-15T15:48:29;3.65;;;0.80;;
17658;SDS011;8948;51.534;8.262;2022-07-15T15:53:30;6.78;;;0.60;;
17658;SDS011;8948;51.534;8.262;2022-07-15T15:58:31;6.15;;;0.85;;
17658;SDS011;8948;51.534;8.262;2022-07-15T16:03:31;1.50;;;0.80;;
17658;SDS011;8948;51.534;8.262;2022-07-15T16:08:32;7.40;;;0.80;;
17658;SDS011;8948;51.534;8.262;2022-07-15T16:13:33;2.05;;;0.85;;
17658;SDS011;8948;51.534;8.262;2022-07-15T16:18:34;1.83;;;0.70;;
17658;SDS011;8948;51.534;8.262;2022-07-15T16:23:34;4.78;;;0.90;;
17658;SDS011;8948;51.534;8.262;2022-07-15T16:28:35;2.53;;;0.80;;
17658;SDS011;8948;51.534;8.262;2022-07-15T16:33:35;4.22;;;0.80;;
17658;SDS011;8948;51.534;8.262;2022-07-15T16:38:36;3.10;;;0.90;;
17658;SDS011;8948;51.534;8.262;2022-07-15T16:43:37;2.45;;;1.05;;
17658;SDS011;8948;51.534;8.262;2022-07-15T16:48:38;5.22;;;1.08;;
17658;SDS011;8948;51.534;8.262;2022-07-15T16:53:38;2.38;;;0.70;;
17658;SDS011;8948;51.534;8.262;2022-07-15T16:58:39;2.42;;;1.00;;
17658;SDS011;8948;51.534;8.262;2022-07-15T17:03:39;2.22;;;0.60;;
17658;SDS011;8948;51.534;8.262;2022-07-15T17:08:40;1.50;;;0.80;;
17658;SDS011;8948;51.534;8.262;2022-07-15T17:13:41;0.95;;;0.70;;
17658;SDS011;8948;51.534;8.262;2022-07-15T17:18:41;4.55;;;0.90;;
17658;SDS011;8948;51.534;8.262;2022-07-15T17:23:42;4.78;;;1.05;;
17658;SDS011;8948;51.534;8.262;2022-07-15T17:28:42;7.22;;;0.65;;
17658;SDS011;8948;51.534;8.262;2022-07-15T17:33:43;10.30;;;0.88;;
17658;SDS011;8948;51.534;8.262;2022-07-15T17:38:44;4.10;;;0.77;;
17658;SDS011;8948;51.534;8.262;2022-07-15T17:43:45;8.32;;;0.80;;
17658;SDS011;8948;51.534;8.262;2022-07-15T17:48:46;2.95;;;0.80;;
17658;SDS011;8948;51.534;8.262;2022-07-15T17:53:47;2.90;;;0.77;;
17658;SDS011;8948;51.534;8.262;2022-07-15T17:58:47;1.35;;;0.73;;
17658;SDS011;8948;51.534;8.262;2022-07-15T18:03:48;1.42;;;0.75;;
17658;SDS011;8948;51.534;8.262;2022-07-15T18:08:49;2.83;;;0.80;;
17658;SDS011;8948;51.534;8.262;2022-07-15T18:13:49;2.60;;;0.60;;
17658;SDS011;8948;51.534;8.262;2022-07-15T18:18:50;0.80;;;0.60;;
17658;SDS011;8948;51.534;8.262;2022-07-15T18:23:51;1.80;;;0.77;;
17658;SDS011;8948;51.534;8.262;2022-07-15T18:28:51;1.85;;;0.70;;
17658;SDS011;8948;51.534;8.262;2022-07-15T18:33:52;1.00;;;0.90;;
17658;SDS011;8948;51.534;8.262;2022-07-15T18:38:53;1.52;;;0.68;;
17658;SDS011;8948;51.534;8.262;2022-07-15T18:43:54;2.80;;;0.85;;
17658;SDS011;8948;51.534;8.262;2022-07-15T18:48:55;1.45;;;0.80;;
17658;SDS011;8948;51.534;8.262;2022-07-15T18:53:55;5.35;;;1.10;;
17658;SDS011;8948;51.534;8.262;2022-07-15T18:58:57;1.50;;;0.90;;
17658;SDS011;8948;51.534;8.262;2022-07-15T19:03:58;4.10;;;0.68;;
17658;SDS011;8948;51.534;8.262;2022-07-15T19:08:59;1.50;;;0.90;;
17658;SDS011;8948;51.534;8.262;2022-07-15T19:13:59;2.88;;;0.88;;
17658;SDS011;8948;51.534;8.262;2022-07-15T19:19:00;3.05;;;1.02;;
17658;SDS011;8948;51.534;8.262;2022-07-15T19:24:00;4.93;;;0.90;;
17658;SDS011;8948;51.534;8.262;2022-07-15T19:29:01;1.98;;;0.85;;
17658;SDS011;8948;51.534;8.262;2022-07-15T19:34:02;1.33;;;0.55;;
17658;SDS011;8948;51.534;8.262;2022-07-15T19:39:03;3.75;;;0.90;;
17658;SDS011;8948;51.534;8.262;2022-07-15T19:44:03;1.58;;;0.70;;
17658;SDS011;8948;51.534;8.262;2022-07-15T19:49:04;1.50;;;0.80;;
17658;SDS011;8948;51.534;8.262;2022-07-15T19:54:05;2.35;;;0.70;;
17658;SDS011;8948;51.534;8.262;2022-07-15T19:59:06;3.33;;;1.15;;
17658;SDS011;8948;51.534;8.262;2022-07-15T20:04:26;2.25;;;0.70;;
17658;SDS011;8948;51.534;8.262;2022-07-15T20:09:27;4.25;;;1.20;;
17658;SDS011;8948;51.534;8.262;2022-07-15T20:14:27;4.88;;;0.80;;
17658;SDS011;8948;51.534;8.262;2022-07-15T20:19:28;3.58;;;1.10;;
17658;SDS011;8948;51.534;8.262;2022-07-15T20:24:29;4.90;;;0.90;;
17658;SDS011;8948;51.534;8.262;2022-07-15T20:29:30;3.03;;;0.95;;
17658;SDS011;8948;51.534;8.262;2022-07-15T20:34:31;1.77;;;0.80;;
17658;SDS011;8948;51.534;8.262;2022-07-15T20:39:32;8.68;;;1.08;;
17658;SDS011;8948;51.534;8.262;2022-07-15T20:44:32;2.75;;;0.90;;
17658;SDS011;8948;51.534;8.262;2022-07-15T20:49:33;2.97;;;1.00;;
17658;SDS011;8948;51.534;8.262;2022-07-15T20:54:33;3.88;;;0.82;;
17658;SDS011;8948;51.534;8.262;2022-07-15T20:59:34;3.50;;;0.90;;
17658;SDS011;8948;51.534;8.262;2022-07-15T21:04:35;7.47;;;1.20;;
17658;SDS011;8948;51.534;8.262;2022-07-15T21:09:35;2.17;;;0.90;;
17658;SDS011;8948;51.534;8.262;2022-07-15T21:14:36;1.13;;;0.80;;
17658;SDS011;8948;51.534;8.262;2022-07-15T21:19:37;1.83;;;0.80;;
17658;SDS011;8948;51.534;8.262;2022-07-15T21:24:38;6.93;;;1.23;;
17658;SDS011;8948;51.534;8.262;2022-07-15T21:29:57;2.05;;;0.80;;
17658;SDS011;8948;51.534;8.262;2022-07-15T21:34:57;6.25;;;1.20;;
17658;SDS011;8948;51.534;8.262;2022-07-15T21:39:58;3.75;;;1.02;;
17658;SDS011;8948;51.534;8.262;2022-07-15T21:44:59;4.93;;;1.38;;
17658;SDS011;8948;51.534;8.262;2022-07-15T21:49:59;4.72;;;1.00;;
17658;SDS011;8948;51.534;8.262;2022-07-15T21:55:00;2.90;;;1.02;;
17658;SDS011;8948;51.534;8.262;2022-07-15T22:00:01;1.23;;;0.82;;
17658;SDS011;8948;51.534;8.262;2022-07-15T22:05:04;3.67;;;1.00;;
17658;SDS011;8948;51.534;8.262;2022-07-15T22:10:07;2.88;;;0.80;;
17658;SDS011;8948;51.534;8.262;2022-07-15T22:15:08;3.70;;;1.20;;
17658;SDS011;8948;51.534;8.262;2022-07-15T22:20:09;2.92;;;1.20;;
17658;SDS011;8948;51.534;8.262;2022-07-15T22:25:10;3.78;;;1.17;;
17658;SDS011;8948;51.534;8.262;2022-07-15T22:30:11;2.63;;;1.13;;
17658;SDS011;8948;51.534;8.262;2022-07-15T22:35:12;3.80;;;1.20;;
17658;SDS011;8948;51.534;8.262;2022-07-15T22:40:13;2.45;;;1.00;;
17658;SDS011;8948;51.534;8.262;2022-07-15T22:45:14;4.32;;;1.30;;
17658;SDS011;8948;51.534;8.262;2022-07-15T22:50:15;3.25;;;1.17;;
17658;SDS011;8948;51.534;8.262;2022-07-15T22:55:15;2.53;;;1.10;;
17658;SDS011;8948;51.534;8.262;2022-07-15T23:00:16;3.85;;;1.35;;
17658;SDS011;8948;51.534;8.262;2022-07-15T23:05:17;3.50;;;0.95;;
17658;SDS011;8948;51.534;8.262;2022-07-15T23:10:17;3.90;;;1.35;;
17658;SDS011;8948;51.534;8.262;2022-07-15T23:15:18;2.42;;;1.35;;
17658;SDS011;8948;51.534;8.262;2022-07-15T23:20:19;2.97;;;1.45;;
17658;SDS011;8948;51.534;8.262;2022-07-15T23:25:19;5.80;;;1.45;;
17658;SDS011;8948;51.534;8.262;2022-07-15T23:30:20;2.95;;;1.17;;
17658;SDS011;8948;51.534;8.262;2022-07-15T23:35:20;5.45;;;1.15;;
17658;SDS011;8948;51.534;8.262;2022-07-15T23:40:21;4.38;;;1.30;;
17658;SDS011;8948;51.534;8.262;2022-07-15T23:45:22;2.55;;;1.13;;
17658;SDS011;8948;51.534;8.262;2022-07-15T23:50:22;4.32;;;1.40;;
17658;SDS011;8948;51.534;8.262;2022-07-15T23:55:23;5.22;;;1.15;;
